Time;durP1;ratioP1;P1;durP2;ratioP2;P2;SDS_P1;SDS_P2;PMS_P1;PMS_P2;Temp;Humidity;BMP_temperature;BMP_pressure;BME280_temperature;BME280_humidity;BME280_pressure;Samples;Min_cycle;Max_cycle;Signal;HPM_P1;HPM_P2
2023/07/09 00:00:01;;;;;;;;;11.00;11.00;;;;;27.64;52.73;101123.13;5071993;27;45645;-71
2023/07/09 00:02:27;;;;;;;;;11.00;8.67;;;;;27.65;52.79;101130.38;5049571;28;45605;-71
2023/07/09 00:04:53;;;;;;;;;14.00;13.67;;;;;27.54;52.96;101118.94;5075207;27;45391;-70
2023/07/09 00:07:31;;;;;;;;;9.67;9.67;;;;;27.55;53.16;101131.69;5073965;28;45610;-71
2023/07/09 00:09:58;;;;;;;;;12.00;10.33;;;;;27.55;53.24;101137.19;5073127;27;45507;-71
2023/07/09 00:12:24;;;;;;;;;14.00;13.33;;;;;27.56;53.29;101139.88;5074708;27;45372;-70
2023/07/09 00:14:49;;;;;;;;;13.33;12.00;;;;;27.45;52.66;101120.16;5066730;27;45364;-70
2023/07/09 00:17:26;;;;;;;;;14.33;10.67;;;;;27.52;53.25;101131.81;5074780;28;45532;-72
2023/07/09 00:19:52;;;;;;;;;9.00;9.00;;;;;27.54;53.13;101143.66;5073986;27;45482;-73
2023/07/09 00:22:19;;;;;;;;;13.00;10.00;;;;;27.52;53.26;101142.78;5056679;28;45510;-73
2023/07/09 00:24:47;;;;;;;;;13.33;12.33;;;;;27.50;53.30;101147.44;5056978;28;45496;-73
2023/07/09 00:27:14;;;;;;;;;11.67;10.67;;;;;27.52;53.17;101137.28;5067782;27;45514;-75
2023/07/09 00:29:41;;;;;;;;;13.33;9.67;;;;;27.48;53.61;101139.25;5074738;28;46187;-77
2023/07/09 00:32:20;;;;;;;;;13.00;11.00;;;;;27.42;53.48;101136.75;5075077;27;45493;-81
2023/07/09 00:34:50;;;;;;;;;12.67;11.67;;;;;27.48;53.62;101142.00;5074779;28;45444;-71
2023/07/09 00:37:17;;;;;;;;;9.00;8.67;;;;;27.48;53.21;101143.88;5057425;28;45434;-74
2023/07/09 00:39:47;;;;;;;;;11.00;11.00;;;;;27.47;53.53;101150.28;5075831;27;45563;-78
2023/07/09 00:42:18;;;;;;;;;17.00;13.67;;;;;27.42;53.61;101152.31;5056959;28;45654;-77
2023/07/09 00:44:53;;;;;;;;;10.00;10.00;;;;;27.43;53.58;101159.63;5069618;28;45479;-76
2023/07/09 00:47:21;;;;;;;;;11.00;9.67;;;;;27.42;53.89;101166.94;5073969;27;45571;-82
2023/07/09 00:49:48;;;;;;;;;10.00;9.33;;;;;27.42;53.94;101163.31;5063905;27;45493;-75
2023/07/09 00:52:35;;;;;;;;;12.33;12.33;;;;;27.36;54.07;101162.59;5074190;28;45369;-70
2023/07/09 00:55:05;;;;;;;;;8.67;8.67;;;;;27.35;54.05;101169.00;5068911;28;45479;-71
2023/07/09 00:57:31;;;;;;;;;14.33;11.67;;;;;27.35;53.86;101173.63;5061559;28;45458;-70
2023/07/09 01:00:11;;;;;;;;;9.67;9.00;;;;;27.34;54.08;101172.72;5072844;28;46946;-70
2023/07/09 01:02:43;;;;;;;;;10.00;10.00;;;;;27.17;53.80;101142.22;5062123;27;45496;-70
2023/07/09 01:05:10;;;;;;;;;10.00;10.00;;;;;27.19;54.34;101154.94;5073033;28;45551;-70
2023/07/09 01:07:36;;;;;;;;;12.33;10.33;;;;;27.15;54.19;101149.63;5073088;28;45408;-77
2023/07/09 01:10:02;;;;;;;;;11.67;10.33;;;;;27.20;54.58;101164.06;5072772;28;46381;-70
2023/07/09 01:12:32;;;;;;;;;12.33;12.33;;;;;27.24;54.51;101171.25;5061782;28;45323;-70
2023/07/09 01:14:59;;;;;;;;;10.00;10.00;;;;;27.20;54.52;101178.66;5070281;28;45599;-70
2023/07/09 01:17:27;;;;;;;;;9.67;9.67;;;;;27.18;54.67;101182.44;5053645;28;45547;-71
2023/07/09 01:19:54;;;;;;;;;11.00;9.33;;;;;27.11;55.01;101170.78;5066002;28;46282;-71
2023/07/09 01:22:21;;;;;;;;;13.33;11.00;;;;;27.12;54.73;101177.16;5067123;28;45346;-69
2023/07/09 01:25:06;;;;;;;;;9.00;9.00;;;;;27.10;54.98;101177.22;5053986;28;45318;-69
2023/07/09 01:27:37;;;;;;;;;12.00;10.00;;;;;27.04;55.17;101169.19;5068901;27;45525;-70
2023/07/09 01:30:11;;;;;;;;;14.33;9.67;;;;;27.05;55.37;101183.81;5057424;28;48010;-70
2023/07/09 01:32:38;;;;;;;;;10.67;10.00;;;;;26.98;55.46;101180.41;5062862;28;45374;-71
2023/07/09 01:35:06;;;;;;;;;10.00;8.67;;;;;27.00;55.49;101193.09;5068314;27;45345;-70
2023/07/09 01:37:35;;;;;;;;;9.00;6.00;;;;;26.98;55.11;101192.25;5070968;27;45424;-71
2023/07/09 01:40:00;;;;;;;;;10.33;10.00;;;;;26.97;55.12;101189.56;5048406;27;45479;-70
2023/07/09 01:42:28;;;;;;;;;11.00;9.67;;;;;26.81;55.35;101170.91;5057948;28;45689;-70
2023/07/09 01:44:54;;;;;;;;;9.00;8.67;;;;;26.90;55.37;101194.38;5077018;28;45697;-71
2023/07/09 01:47:22;;;;;;;;;9.00;9.00;;;;;26.93;55.47;101198.88;5064785;28;45553;-70
2023/07/09 01:49:47;;;;;;;;;8.67;8.67;;;;;26.87;55.39;101186.25;5068428;27;47066;-70
2023/07/09 01:52:16;;;;;;;;;11.00;11.00;;;;;26.79;55.98;101181.00;5072740;28;45423;-70
2023/07/09 01:54:49;;;;;;;;;13.33;10.00;;;;;26.81;55.66;101198.34;5076564;27;45965;-70
2023/07/09 01:57:22;;;;;;;;;11.33;10.67;;;;;26.75;55.77;101200.38;5075941;27;45993;-74
2023/07/09 01:59:49;;;;;;;;;12.33;11.33;;;;;26.72;56.51;101203.22;5052714;28;47047;-69
2023/07/09 02:02:20;;;;;;;;;10.67;9.33;;;;;26.71;56.18;101206.91;5075488;28;45455;-70
2023/07/09 02:04:52;;;;;;;;;11.00;9.33;;;;;26.70;56.41;101214.25;5053614;28;45449;-71
2023/07/09 02:07:20;;;;;;;;;15.00;11.33;;;;;26.65;56.24;101208.91;5071388;28;45397;-70
2023/07/09 02:09:46;;;;;;;;;11.00;11.00;;;;;26.61;56.23;101206.28;5075596;27;46255;-71
2023/07/09 02:12:13;;;;;;;;;11.33;10.00;;;;;26.61;56.26;101212.69;5075669;27;45280;-70
2023/07/09 02:14:40;;;;;;;;;14.00;11.33;;;;;26.54;56.29;101201.97;5075311;27;45485;-71
2023/07/09 02:17:06;;;;;;;;;12.00;10.67;;;;;26.63;56.14;101208.06;5076173;27;45418;-70
2023/07/09 02:19:33;;;;;;;;;10.67;10.67;;;;;26.55;56.13;101190.06;5073693;27;46707;-72
2023/07/09 02:21:58;;;;;;;;;13.67;11.33;;;;;26.64;56.36;101204.38;5076222;28;45404;-70
2023/07/09 02:24:24;;;;;;;;;14.00;12.00;;;;;26.59;56.01;101198.09;5057572;28;45492;-71
2023/07/09 02:26:58;;;;;;;;;14.33;13.00;;;;;26.61;56.32;101204.47;5069933;27;45377;-70
2023/07/09 02:29:24;;;;;;;;;16.00;11.00;;;;;26.50;55.99;101187.47;5073164;27;47671;-70
2023/07/09 02:31:51;;;;;;;;;10.00;8.00;;;;;26.44;56.03;101177.59;5070066;27;45434;-70
2023/07/09 02:34:18;;;;;;;;;9.00;9.00;;;;;26.54;55.84;101196.47;5075406;28;45686;-75
2023/07/09 02:36:43;;;;;;;;;10.33;9.33;;;;;26.38;55.94;101185.13;5068462;28;45499;-70
2023/07/09 02:39:13;;;;;;;;;12.00;11.67;;;;;26.41;56.03;101198.72;5055952;28;46217;-74
2023/07/09 02:41:40;;;;;;;;;12.00;12.00;;;;;26.46;55.85;101202.19;5075538;27;45562;-70
2023/07/09 02:44:07;;;;;;;;;8.67;8.67;;;;;26.49;56.10;101202.09;5074994;28;45508;-73
2023/07/09 02:46:32;;;;;;;;;9.00;9.00;;;;;26.44;56.38;101213.22;5075482;27;45652;-71
2023/07/09 02:48:58;;;;;;;;;10.67;9.33;;;;;26.43;55.94;101205.97;5074706;28;46122;-70
2023/07/09 02:51:26;;;;;;;;;12.67;12.67;;;;;26.42;56.52;101209.63;5070097;28;45475;-70
2023/07/09 02:53:53;;;;;;;;;12.67;12.00;;;;;26.38;56.62;101210.69;5071826;28;45394;-70
2023/07/09 02:56:18;;;;;;;;;9.33;8.00;;;;;26.37;56.56;101208.00;5065427;27;45513;-73
2023/07/09 02:58:44;;;;;;;;;11.00;10.67;;;;;26.32;57.06;101201.78;5062122;27;45953;-70
2023/07/09 03:01:09;;;;;;;;;12.33;11.33;;;;;26.37;57.06;101214.38;5072631;27;45329;-71
2023/07/09 03:03:35;;;;;;;;;11.67;10.33;;;;;26.33;57.33;101211.78;5075720;27;45273;-71
2023/07/09 03:06:00;;;;;;;;;13.67;12.67;;;;;26.32;57.36;101216.38;5075398;27;45837;-71
2023/07/09 03:08:25;;;;;;;;;12.00;11.00;;;;;26.28;57.16;101212.81;5075334;28;46580;-69
2023/07/09 03:10:51;;;;;;;;;12.67;11.00;;;;;26.30;57.54;101224.63;5054428;28;45575;-72
2023/07/09 03:13:16;;;;;;;;;11.67;11.00;;;;;26.30;57.63;101227.38;5074504;28;45527;-70
2023/07/09 03:15:41;;;;;;;;;11.00;10.33;;;;;26.24;57.88;101232.13;5071140;28;45453;-72
2023/07/09 03:18:07;;;;;;;;;15.33;13.33;;;;;26.23;57.57;101238.56;5072172;28;45917;-70
2023/07/09 03:20:32;;;;;;;;;14.00;12.00;;;;;26.21;57.99;101249.56;5075520;27;45745;-69
2023/07/09 03:22:57;;;;;;;;;14.00;9.67;;;;;26.21;57.94;101243.19;5048108;28;45805;-71
2023/07/09 03:25:23;;;;;;;;;10.00;10.00;;;;;26.18;57.55;101246.91;5054628;28;45322;-70
2023/07/09 03:27:48;;;;;;;;;14.67;11.00;;;;;26.17;57.69;101244.22;5051875;28;46120;-71
2023/07/09 03:30:14;;;;;;;;;10.67;10.67;;;;;25.89;57.53;101193.91;5053679;28;45511;-71
2023/07/09 03:32:39;;;;;;;;;12.67;12.33;;;;;26.20;57.41;101241.38;5052734;28;45276;-70
2023/07/09 03:35:05;;;;;;;;;11.00;10.33;;;;;26.15;57.69;101244.28;5054421;28;45550;-72
2023/07/09 03:37:30;;;;;;;;;12.67;11.33;;;;;26.07;58.11;101230.81;5053687;28;45494;-73
2023/07/09 03:39:56;;;;;;;;;12.33;10.33;;;;;25.93;57.83;101206.53;5054522;28;45755;-70
2023/07/09 03:42:21;;;;;;;;;11.67;10.00;;;;;26.11;57.66;101242.56;5054202;28;45519;-69
2023/07/09 03:44:46;;;;;;;;;12.67;10.67;;;;;26.05;57.63;101245.47;5046231;28;45622;-69
2023/07/09 03:47:12;;;;;;;;;11.67;9.33;;;;;26.04;57.92;101250.06;5049510;28;46231;-70
2023/07/09 03:49:38;;;;;;;;;10.67;9.00;;;;;25.89;57.70;101225.88;5053848;28;45491;-71
2023/07/09 03:52:04;;;;;;;;;13.00;9.33;;;;;25.93;58.01;101235.78;5050597;28;45444;-70
2023/07/09 03:54:29;;;;;;;;;10.33;9.33;;;;;25.94;58.09;101234.84;5054272;28;45424;-70
2023/07/09 03:56:56;;;;;;;;;11.00;9.33;;;;;25.89;57.91;101237.72;5053985;28;45862;-70
2023/07/09 03:59:21;;;;;;;;;9.33;8.33;;;;;25.89;57.91;101240.44;5054153;28;45383;-70
2023/07/09 04:01:50;;;;;;;;;10.33;10.33;;;;;25.79;57.54;101235.28;5050659;28;45463;-71
2023/07/09 04:04:20;;;;;;;;;11.00;9.67;;;;;25.87;57.76;101246.91;5054896;28;45641;-71
2023/07/09 04:06:45;;;;;;;;;11.67;10.67;;;;;25.88;57.49;101240.50;5053136;28;47183;-70
2023/07/09 04:09:11;;;;;;;;;11.00;11.00;;;;;25.87;57.35;101236.88;5054477;28;45344;-72
2023/07/09 04:11:36;;;;;;;;;10.00;10.00;;;;;25.85;57.47;101244.19;5036964;28;45393;-76
2023/07/09 04:14:01;;;;;;;;;8.67;8.67;;;;;25.71;57.56;101221.84;5044845;28;45374;-75
2023/07/09 04:16:27;;;;;;;;;12.67;10.67;;;;;25.78;57.01;101234.38;5048081;28;45693;-72
2023/07/09 04:18:52;;;;;;;;;6.67;6.67;;;;;25.87;57.18;101250.56;5044063;28;45433;-71
2023/07/09 04:21:17;;;;;;;;;14.67;11.00;;;;;25.83;57.31;101245.22;5054181;28;45480;-73
2023/07/09 04:23:43;;;;;;;;;12.67;10.00;;;;;25.85;57.24;101262.47;5057079;28;45412;-69
2023/07/09 04:26:12;;;;;;;;;11.00;9.00;;;;;25.77;57.18;101238.06;5056679;28;55037;-73
2023/07/09 04:28:38;;;;;;;;;13.33;9.33;;;;;25.82;57.15;101255.28;5076046;27;45541;-72
2023/07/09 04:31:03;;;;;;;;;9.00;9.00;;;;;25.85;57.01;101252.41;5062836;28;45240;-72
2023/07/09 04:33:35;;;;;;;;;11.00;10.00;;;;;25.80;57.05;101242.56;5058324;28;45247;-73
2023/07/09 04:36:01;;;;;;;;;12.33;9.00;;;;;25.82;56.92;101251.59;5055072;28;45548;-71
2023/07/09 04:38:26;;;;;;;;;12.00;11.00;;;;;25.81;56.90;101253.47;5064537;28;45499;-73
2023/07/09 04:40:51;;;;;;;;;15.67;11.00;;;;;25.71;56.72;101227.31;5072304;28;46068;-72
2023/07/09 04:43:17;;;;;;;;;9.67;8.67;;;;;25.75;56.23;101237.22;5074648;28;45369;-71
2023/07/09 04:45:42;;;;;;;;;14.00;11.67;;;;;25.80;55.51;101243.44;5073666;27;45558;-76
2023/07/09 04:48:07;;;;;;;;;9.33;9.33;;;;;25.80;55.51;101237.97;5074096;28;60613;-71
2023/07/09 04:50:33;;;;;;;;;9.00;9.00;;;;;25.79;55.43;101252.63;5056492;28;45444;-75
2023/07/09 04:52:59;;;;;;;;;14.00;12.00;;;;;25.81;55.87;101244.34;5057099;28;45623;-71
2023/07/09 04:55:26;;;;;;;;;11.33;10.67;;;;;25.82;55.60;101240.66;5079494;28;46253;-70
2023/07/09 04:57:52;;;;;;;;;13.33;12.33;;;;;25.81;55.45;101231.56;5083124;27;45295;-72
2023/07/09 05:00:17;;;;;;;;;11.33;8.00;;;;;25.73;55.02;101209.00;5072307;28;45517;-71
2023/07/09 05:02:43;;;;;;;;;11.67;8.67;;;;;25.84;55.06;101233.31;5081642;28;45449;-72
2023/07/09 05:05:08;;;;;;;;;9.00;9.00;;;;;25.81;55.25;101231.56;5077765;28;45354;-73
2023/07/09 05:07:34;;;;;;;;;11.33;10.00;;;;;25.77;55.22;101216.16;5069907;28;45582;-71
2023/07/09 05:09:59;;;;;;;;;12.00;11.67;;;;;25.78;55.07;101226.19;5079016;27;45508;-70
2023/07/09 05:12:28;;;;;;;;;9.00;9.00;;;;;25.75;55.03;101235.38;5079605;27;45414;-69
2023/07/09 05:14:54;;;;;;;;;12.00;12.00;;;;;25.58;54.70;101206.72;5070859;28;45520;-73
2023/07/09 05:17:20;;;;;;;;;10.33;8.33;;;;;25.71;54.68;101221.84;5077267;27;45180;-71
2023/07/09 05:19:45;;;;;;;;;9.00;8.33;;;;;25.75;54.67;101227.19;5077971;28;45335;-71
2023/07/09 05:22:10;;;;;;;;;8.00;8.00;;;;;25.52;54.67;101177.66;5078250;28;45254;-74
2023/07/09 05:24:36;;;;;;;;;7.67;7.67;;;;;25.79;54.27;101218.84;5077887;28;47707;-77
2023/07/09 05:27:01;;;;;;;;;9.00;7.67;;;;;25.79;54.11;101227.97;5078235;27;45410;-72
2023/07/09 05:29:27;;;;;;;;;10.00;7.33;;;;;25.70;54.04;101211.81;5076748;28;45348;-77
2023/07/09 05:31:52;;;;;;;;;9.00;9.00;;;;;25.70;53.88;101220.91;5080923;27;45491;-76
2023/07/09 05:34:17;;;;;;;;;8.00;8.00;;;;;25.82;53.66;101246.13;5081780;27;45933;-79
2023/07/09 05:36:44;;;;;;;;;9.67;9.67;;;;;25.82;53.38;101247.06;5065982;28;45550;-75
2023/07/09 05:39:10;;;;;;;;;8.00;8.00;;;;;25.81;53.18;101245.25;5079747;28;45275;-77
2023/07/09 05:41:35;;;;;;;;;10.33;8.67;;;;;25.78;53.42;101238.97;5072282;27;45556;-80
2023/07/09 05:44:01;;;;;;;;;10.33;9.33;;;;;25.86;53.20;101243.28;5074100;28;46059;-73
2023/07/09 05:46:26;;;;;;;;;12.00;9.67;;;;;25.70;53.10;101199.03;5063181;28;45565;-74
2023/07/09 05:48:51;;;;;;;;;7.33;7.33;;;;;25.94;52.87;101246.69;5065157;28;45610;-71
2023/07/09 05:51:17;;;;;;;;;11.00;9.67;;;;;25.92;52.40;101244.94;5055413;28;45542;-71
2023/07/09 05:53:42;;;;;;;;;7.00;7.00;;;;;25.69;52.25;101190.84;5053193;28;46865;-69
2023/07/09 05:56:08;;;;;;;;;9.33;9.33;;;;;25.95;52.31;101228.41;5076057;27;45479;-71
2023/07/09 05:58:33;;;;;;;;;10.00;8.33;;;;;26.05;52.41;101223.56;5058127;28;45853;-71
2023/07/09 06:00:59;;;;;;;;;8.33;7.00;;;;;26.04;51.62;101208.13;5075939;27;45444;-72
2023/07/09 06:03:26;;;;;;;;;8.67;8.33;;;;;26.10;51.62;101219.78;5071148;27;46687;-70
2023/07/09 06:05:52;;;;;;;;;8.33;8.00;;;;;26.20;51.78;101227.69;5055991;28;45357;-72
2023/07/09 06:08:20;;;;;;;;;9.67;8.00;;;;;26.04;51.41;101200.78;5074734;28;45382;-73
2023/07/09 06:10:56;;;;;;;;;7.67;7.67;;;;;26.14;51.29;101208.72;5076457;27;45457;-70
2023/07/09 06:13:22;;;;;;;;;10.33;8.00;;;;;26.23;51.16;101213.91;5076179;27;45770;-69
2023/07/09 06:15:48;;;;;;;;;10.00;9.00;;;;;26.39;51.08;101228.91;5068557;27;45340;-71
2023/07/09 06:18:14;;;;;;;;;13.00;8.67;;;;;26.42;50.96;101216.97;5072692;28;45526;-70
2023/07/09 06:20:39;;;;;;;;;10.33;7.33;;;;;26.43;50.62;101222.41;5063900;28;45397;-70
2023/07/09 06:23:04;;;;;;;;;12.33;8.00;;;;;26.30;50.48;101199.09;5060594;28;45597;-70
2023/07/09 06:25:30;;;;;;;;;9.00;7.67;;;;;26.43;50.06;101244.31;5077010;27;45539;-70
2023/07/09 06:27:57;;;;;;;;;7.33;7.33;;;;;26.49;50.12;101248.69;5073922;27;45479;-70
2023/07/09 06:30:23;;;;;;;;;6.33;6.33;;;;;26.54;50.26;101260.41;5048081;28;45303;-71
2023/07/09 06:32:48;;;;;;;;;11.00;9.00;;;;;26.55;50.28;101264.94;5071015;27;46209;-71
2023/07/09 06:35:14;;;;;;;;;11.67;8.67;;;;;26.49;50.16;101276.09;5072873;28;45490;-71
2023/07/09 06:37:39;;;;;;;;;8.00;8.00;;;;;26.42;50.29;101278.13;5075869;27;45417;-72
2023/07/09 06:40:08;;;;;;;;;7.33;7.33;;;;;26.49;50.35;101284.31;5072208;27;45500;-71
2023/07/09 06:42:34;;;;;;;;;11.67;10.00;;;;;26.55;50.10;101280.50;5073180;28;45459;-71
2023/07/09 06:44:59;;;;;;;;;9.67;8.67;;;;;26.59;49.99;101287.66;5071328;28;45377;-71
2023/07/09 06:47:24;;;;;;;;;11.67;7.33;;;;;26.57;49.93;101273.13;5075658;27;45268;-71
2023/07/09 06:49:50;;;;;;;;;7.33;6.33;;;;;26.69;49.69;101289.19;5053781;28;45395;-71
2023/07/09 06:52:15;;;;;;;;;7.00;6.00;;;;;26.74;49.14;101291.78;5075131;27;46362;-70
2023/07/09 06:54:41;;;;;;;;;5.67;5.67;;;;;26.72;49.38;101277.25;5076019;28;45684;-71
2023/07/09 06:57:06;;;;;;;;;6.00;6.00;;;;;26.81;49.20;101301.59;5075501;27;45483;-71
2023/07/09 06:59:31;;;;;;;;;8.33;6.00;;;;;26.82;48.62;101298.81;5075666;28;45296;-70
2023/07/09 07:01:57;;;;;;;;;8.00;7.00;;;;;26.80;48.84;101288.84;5056820;28;47132;-71
2023/07/09 07:04:25;;;;;;;;;7.00;7.00;;;;;26.86;49.07;101288.66;5075392;27;45391;-70
2023/07/09 07:06:50;;;;;;;;;7.00;6.33;;;;;26.92;48.79;101287.56;5056625;28;45613;-70
2023/07/09 07:09:15;;;;;;;;;8.33;7.00;;;;;26.97;48.67;101280.94;5076087;27;45361;-71
2023/07/09 07:11:41;;;;;;;;;6.33;5.33;;;;;26.97;48.26;101263.59;5050590;28;45716;-70
2023/07/09 07:14:06;;;;;;;;;6.00;6.00;;;;;26.99;48.13;101262.63;5075394;27;45527;-72
2023/07/09 07:16:31;;;;;;;;;6.67;6.00;;;;;27.07;48.00;101265.09;5068988;27;45391;-72
2023/07/09 07:18:57;;;;;;;;;6.67;6.00;;;;;27.15;47.87;101265.72;5066146;28;45330;-71
2023/07/09 07:21:22;;;;;;;;;5.00;5.00;;;;;27.10;47.44;101261.34;5072144;28;45309;-71
2023/07/09 07:23:48;;;;;;;;;8.33;4.33;;;;;27.14;47.40;101266.69;5068816;27;49067;-71
2023/07/09 07:26:13;;;;;;;;;7.00;6.00;;;;;27.25;47.53;101281.88;5058225;28;45520;-71
2023/07/09 07:28:39;;;;;;;;;6.67;6.00;;;;;27.27;47.57;101272.63;5069087;28;45478;-71
2023/07/09 07:31:09;;;;;;;;;5.00;5.00;;;;;27.35;47.20;101276.03;5047605;28;45652;-71
2023/07/09 07:33:35;;;;;;;;;7.67;6.00;;;;;27.49;46.95;101296.63;5074666;28;45463;-71
2023/07/09 07:36:00;;;;;;;;;9.00;7.00;;;;;27.42;47.41;101295.03;5074220;28;45440;-73
2023/07/09 07:38:25;;;;;;;;;10.00;7.33;;;;;27.38;47.18;101284.16;5072512;28;45458;-71
2023/07/09 07:40:51;;;;;;;;;6.00;6.00;;;;;27.40;47.26;101286.84;5075065;27;46271;-71
2023/07/09 07:43:16;;;;;;;;;7.33;7.33;;;;;27.39;47.36;101296.94;5074543;28;45785;-70
2023/07/09 07:45:43;;;;;;;;;11.00;9.33;;;;;27.46;47.22;101313.19;5074816;28;45396;-71
2023/07/09 07:48:10;;;;;;;;;10.00;9.00;;;;;27.30;47.66;101296.34;5074939;27;45416;-73
2023/07/09 07:50:35;;;;;;;;;8.33;7.00;;;;;27.39;47.97;101324.38;5075349;27;46420;-71
2023/07/09 07:53:01;;;;;;;;;8.33;8.00;;;;;27.39;47.67;101350.94;5055894;28;45560;-71
2023/07/09 07:55:27;;;;;;;;;7.67;6.67;;;;;27.24;47.86;101363.28;5070088;28;45442;-72
2023/07/09 07:57:53;;;;;;;;;11.00;10.00;;;;;27.24;48.19;101392.53;5075461;28;45388;-71
2023/07/09 08:00:18;;;;;;;;;10.00;9.33;;;;;27.00;48.48;101362.25;5072492;27;45435;-73
2023/07/09 08:02:44;;;;;;;;;12.33;10.00;;;;;26.94;49.11;101360.59;5065725;28;45476;-71
2023/07/09 08:05:09;;;;;;;;;8.00;7.00;;;;;27.01;49.33;101384.13;5073310;28;45421;-70
2023/07/09 08:07:36;;;;;;;;;10.00;9.00;;;;;27.03;49.04;101390.44;5069893;27;45694;-70
2023/07/09 08:10:02;;;;;;;;;10.67;8.00;;;;;26.99;49.00;101379.63;5063611;28;46103;-70
2023/07/09 08:12:27;;;;;;;;;9.33;8.33;;;;;26.97;49.10;101357.72;5074507;27;45451;-72
2023/07/09 08:14:52;;;;;;;;;13.67;10.67;;;;;26.83;49.38;101324.41;5074994;27;45439;-70
2023/07/09 08:17:18;;;;;;;;;8.67;8.67;;;;;26.82;49.59;101336.31;5049257;28;45501;-74
2023/07/09 08:19:51;;;;;;;;;9.67;7.00;;;;;26.77;49.55;101330.97;5068002;28;46171;-72
2023/07/09 08:22:17;;;;;;;;;9.67;8.00;;;;;26.75;49.82;101345.69;5031420;28;45411;-71
2023/07/09 08:24:43;;;;;;;;;8.00;8.00;;;;;26.70;50.37;101347.66;5069784;27;45375;-72
2023/07/09 08:27:09;;;;;;;;;7.67;7.67;;;;;26.67;49.51;101340.44;5073818;27;45487;-71
2023/07/09 08:29:36;;;;;;;;;9.00;9.00;;;;;26.64;49.78;101351.47;5073012;28;45826;-70
2023/07/09 08:32:05;;;;;;;;;13.00;11.00;;;;;26.54;49.86;101344.47;5076832;27;45426;-72
2023/07/09 08:34:30;;;;;;;;;9.33;8.00;;;;;26.59;49.99;101342.47;5077834;27;46172;-71
2023/07/09 08:36:55;;;;;;;;;7.33;6.67;;;;;26.53;50.06;101329.88;5069591;28;45470;-73
2023/07/09 08:39:21;;;;;;;;;7.33;7.33;;;;;26.55;50.36;101338.94;5054337;28;47392;-72
2023/07/09 08:41:59;;;;;;;;;7.33;6.00;;;;;26.57;50.36;101336.16;5071731;28;45425;-72
2023/07/09 08:44:43;;;;;;;;;11.33;10.67;;;;;26.72;50.27;101368.59;5077541;27;45539;-71
2023/07/09 08:47:23;;;;;;;;;7.67;7.67;;;;;26.77;50.94;101390.38;5077319;27;45459;-71
2023/07/09 08:50:16;;;;;;;;;8.67;8.67;;;;;26.75;51.56;101379.47;5071276;27;45467;-71
2023/07/09 08:52:44;;;;;;;;;8.33;8.33;;;;;26.77;51.21;101390.38;5060748;28;45319;-74
2023/07/09 08:55:15;;;;;;;;;7.00;7.00;;;;;26.76;51.00;101394.97;5077678;27;45342;-70
2023/07/09 08:57:45;;;;;;;;;14.67;12.33;;;;;26.79;51.17;101385.75;5065626;27;45405;-70
2023/07/09 09:00:31;;;;;;;;;25.33;20.33;;;;;26.83;51.36;101404.81;5057314;28;46198;-72
2023/07/09 09:03:01;;;;;;;;;15.33;13.33;;;;;26.77;51.22;101396.75;5059031;28;45455;-73
2023/07/09 09:05:27;;;;;;;;;8.67;8.33;;;;;26.91;50.80;101415.53;5076409;28;45476;-70
2023/07/09 09:08:02;;;;;;;;;13.33;9.33;;;;;26.93;50.46;101419.13;5071235;27;45520;-71
2023/07/09 09:10:43;;;;;;;;;14.33;12.00;;;;;26.92;50.24;101417.31;5077373;28;45629;-75
2023/07/09 09:13:12;;;;;;;;;16.67;14.33;;;;;26.88;49.91;101409.22;5063281;28;45776;-73
2023/07/09 09:15:40;;;;;;;;;13.00;12.00;;;;;26.93;50.26;101401.78;5070044;28;45446;-70
2023/07/09 09:18:27;;;;;;;;;14.67;10.33;;;;;26.93;49.91;101390.81;5063874;28;45394;-70
2023/07/09 09:21:16;;;;;;;;;9.00;9.00;;;;;26.91;50.04;101382.63;5070567;27;46486;-71
2023/07/09 09:23:56;;;;;;;;;7.00;7.00;;;;;26.85;49.84;101366.38;5047624;28;45468;-70
2023/07/09 09:26:24;;;;;;;;;8.67;5.67;;;;;26.86;49.74;101384.63;5072812;28;45415;-70
2023/07/09 09:28:51;;;;;;;;;8.33;8.00;;;;;26.81;49.68;101365.56;5077980;27;45436;-71
2023/07/09 09:31:17;;;;;;;;;10.67;7.00;;;;;26.62;49.92;101328.69;5050440;28;45499;-71
2023/07/09 09:33:46;;;;;;;;;9.00;8.00;;;;;26.84;49.78;101361.81;5076424;27;45410;-71
2023/07/09 09:36:23;;;;;;;;;12.67;8.00;;;;;26.74;49.93;101343.88;5058521;28;45300;-73
2023/07/09 09:38:50;;;;;;;;;8.33;8.33;;;;;26.74;49.93;101352.09;5069905;28;45378;-74
2023/07/09 09:41:22;;;;;;;;;7.33;7.00;;;;;26.81;49.18;101379.28;5077272;27;45486;-71
2023/07/09 09:43:51;;;;;;;;;8.00;6.67;;;;;26.80;49.78;101393.94;5077969;28;45381;-72
2023/07/09 09:46:18;;;;;;;;;8.67;8.67;;;;;26.80;49.85;101404.88;5074286;28;45508;-72
2023/07/09 09:48:46;;;;;;;;;8.00;8.00;;;;;26.68;49.24;101399.81;5076342;28;45413;-74
2023/07/09 09:51:13;;;;;;;;;10.67;10.67;;;;;26.67;49.93;101422.66;5076022;27;46906;-75
2023/07/09 09:53:45;;;;;;;;;10.67;9.67;;;;;26.59;50.82;101417.38;5074184;28;45489;-77
2023/07/09 09:56:18;;;;;;;;;8.00;7.67;;;;;26.67;51.43;101431.78;5065726;28;45379;-70
2023/07/09 09:58:43;;;;;;;;;9.67;7.00;;;;;26.66;51.82;101421.78;5076684;27;45384;-72
2023/07/09 10:01:15;;;;;;;;;10.67;9.00;;;;;26.72;52.33;101423.41;5077298;28;45644;-72
2023/07/09 10:03:41;;;;;;;;;10.00;8.33;;;;;26.57;52.47;101394.59;5071291;28;45250;-76
2023/07/09 10:06:15;;;;;;;;;9.33;8.33;;;;;26.75;52.53;101426.06;5075076;27;45440;-73
2023/07/09 10:08:40;;;;;;;;;8.00;8.00;;;;;26.78;52.85;101416.88;5045712;28;45521;-72
2023/07/09 10:11:59;;;;;;;;;11.00;9.00;;;;;26.79;52.26;101432.34;5071484;27;46580;-75
2023/07/09 10:14:43;;;;;;;;;9.00;9.00;;;;;26.76;52.92;101441.59;5071784;27;45260;-73
2023/07/09 10:17:43;;;;;;;;;8.67;8.00;;;;;26.78;53.06;101425.97;5038854;28;45545;-75
2023/07/09 10:20:23;;;;;;;;;11.33;8.00;;;;;26.83;52.83;101396.56;5034917;28;45530;-76
2023/07/09 10:23:04;;;;;;;;;11.00;9.25;;;;;26.82;53.91;101353.63;5039545;27;1120495;-74
2023/07/09 10:25:55;;;;;;;;;11.00;8.00;;;;;26.89;53.81;101337.88;5074286;27;45679;-75
2023/07/09 10:28:35;;;;;;;;;9.67;7.67;;;;;26.90;53.79;101328.72;5073669;28;45538;-76
2023/07/09 10:31:12;;;;;;;;;13.67;12.00;;;;;26.95;54.23;101336.81;5078987;27;45469;-73
2023/07/09 10:33:45;;;;;;;;;9.00;9.00;;;;;26.95;53.67;101345.94;5075862;27;45998;-73
2023/07/09 10:36:27;;;;;;;;;14.67;12.00;;;;;27.05;53.28;101362.09;5058624;28;45536;-78
2023/07/09 10:39:18;;;;;;;;;9.00;8.00;;;;;27.12;53.73;101360.94;5070520;27;45271;-79
2023/07/09 10:41:48;;;;;;;;;11.00;10.33;;;;;27.22;53.11;101373.38;5078221;28;45430;-78
2023/07/09 10:44:41;;;;;;;;;12.00;12.00;;;;;27.31;53.38;101385.97;5076494;27;45487;-71
2023/07/09 10:47:25;;;;;;;;;14.33;11.33;;;;;27.38;52.18;101395.78;5048240;28;45784;-71
2023/07/09 10:49:52;;;;;;;;;9.67;9.67;;;;;27.44;52.36;101398.31;5067993;27;45655;-71
2023/07/09 10:52:28;;;;;;;;;9.00;9.00;;;;;27.51;52.30;101410.88;5076452;27;45529;-72
2023/07/09 10:55:04;;;;;;;;;14.67;12.00;;;;;27.59;52.04;101407.88;5063478;28;46707;-71
2023/07/09 10:57:42;;;;;;;;;11.00;11.00;;;;;27.63;51.65;101404.06;5051137;28;45365;-71
2023/07/09 11:00:17;;;;;;;;;8.00;8.00;;;;;27.70;50.73;101399.25;5068920;28;45522;-72
2023/07/09 11:02:44;;;;;;;;;15.00;10.33;;;;;27.74;50.52;101393.59;5065948;27;45240;-72
2023/07/09 11:05:09;;;;;;;;;9.33;9.33;;;;;27.73;51.06;101360.72;5075380;27;45510;-71
2023/07/09 11:07:38;;;;;;;;;9.00;9.00;;;;;27.91;50.38;101382.00;5075392;28;45417;-72
2023/07/09 11:10:22;;;;;;;;;10.67;8.33;;;;;27.94;48.83;101375.56;5075079;27;45750;-70
2023/07/09 11:12:56;;;;;;;;;9.00;9.00;;;;;27.90;49.25;101363.75;5057254;28;45554;-73
2023/07/09 11:15:35;;;;;;;;;8.33;8.00;;;;;28.06;48.70;101372.34;5069191;28;45630;-72
2023/07/09 11:18:04;;;;;;;;;12.67;10.67;;;;;28.01;48.58;101357.88;5070640;27;45777;-73
2023/07/09 11:20:42;;;;;;;;;9.00;8.67;;;;;28.07;48.79;101371.41;5065131;28;45447;-70
2023/07/09 11:23:18;;;;;;;;;8.33;7.33;;;;;28.10;48.29;101356.69;5073092;27;45622;-71